Hicksville, OH

6:41 PM EDT on August 30, 2015 (GMT -0400)
Hicksville | | Change Station
CLOSE
Current Station
Personal Weather Station
Location: Hicksville, OH
Elevation: 774 ft
Nearby Weather Stations

Elev 774 ft 41.30 °N, 84.76 °W | Updated 20 seconds ago

Partly Cloudy
Partly Cloudy
84.4 °F
Feels Like 89 °F
N
2.2
Wind Variable Wind from NW

Today
High -- | Low -- °F
--% Chance of Precip.
Yesterday
High -- | Low -- °F
Precip. -- in
7:03 AM 8:15 PM
Full, 98% visible
Pressure 30.00 in
Visibility 10.0 miles
Clouds Scattered Clouds 4900 ft
Heat Index 89 °F
Dew Point 71 °F
Humidity 64%
Rainfall 0.07 in
Snow Depth Not available.
UV 2 out of 12
Pollen 8.00 out of 12
Air Quality Not available.
Flu Activity Not available.
METAR KDFI 302153Z AUTO 29005KT 10SM SCT049 29/19 A3002 RMK AO2 SLP159 T02940189 $
Pressure 30.00 in
Visibility 10.0 miles
Clouds Scattered Clouds 4900 ft
Heat Index 89 °F
Dew Point 71 °F
Humidity 64%
Rainfall 0.07 in
Snow Depth Not available.
UV 2 out of 12
Pollen 8.00 out of 12
Air Quality Not available.
Flu Activity Not available.
METAR KDFI 302153Z AUTO 29005KT 10SM SCT049 29/19 A3002 RMK AO2 SLP159 T02940189 $

10-Day Weather Forecast

×

Almanac

Astronomy

Aug. 30, 2015 Rise Set
Actual Time
Civil Twilight
Nautical Twilight
Astronomical Twilight
Moon
Length of Visible Light
Length of Day
Tomorrow will be .
, % of the Moon is Illuminated

Today's Extremes

State Highs State Lows

Community

WunderPhotos

Upload Photos

1,851,075 photos uploaded!

WunderBlogs® & News

Nearby

Air Quality

  Air Quality AQ Index Pollutant
Not available.

Snow Depth

Station Depth Elevation

Earthquake Activity

City Distance Mag. Time & Date
Minimum magnitude displayed is 2.5.

Coastal Water Temperatures

Place Temperature

Stations

Nearby Weather Stations

Station Location Temp. Windchill Dew Point Humidity Wind Precip. Elev Updated Type